createdAt,value
2023-01-13T00:01:18.885Z,1.20
2023-01-13T00:04:06.139Z,1.08
2023-01-13T00:06:52.835Z,1.27
2023-01-13T00:09:39.607Z,0.98
2023-01-13T00:12:27.961Z,1.05
2023-01-13T00:15:15.240Z,1.13
2023-01-13T00:18:02.131Z,1.42
2023-01-13T00:20:49.274Z,1.13
2023-01-13T00:23:36.498Z,1.02
2023-01-13T00:26:24.059Z,1.33
2023-01-13T00:29:12.726Z,1.30
2023-01-13T00:32:00.011Z,1.23
2023-01-13T00:34:47.090Z,1.70
2023-01-13T00:37:36.425Z,1.70
2023-01-13T00:40:23.258Z,1.60
2023-01-13T00:43:24.259Z,1.38
2023-01-13T00:46:13.575Z,1.33
2023-01-13T00:49:00.392Z,1.30
2023-01-13T00:51:47.369Z,1.40
2023-01-13T00:54:34.232Z,1.35
2023-01-13T00:57:21.003Z,1.30
2023-01-13T01:00:08.483Z,1.25
2023-01-13T01:02:56.969Z,0.88
2023-01-13T01:05:43.937Z,1.10
2023-01-13T01:08:30.955Z,0.82
2023-01-13T01:11:19.212Z,1.48
2023-01-13T01:14:06.408Z,0.93
2023-01-13T01:16:53.636Z,0.85
2023-01-13T01:19:42.753Z,0.85
2023-01-13T01:22:30.220Z,1.02
2023-01-13T01:25:19.586Z,0.90
2023-01-13T01:28:08.310Z,0.88
2023-01-13T01:30:59.258Z,0.80
2023-01-13T01:33:48.143Z,0.90
2023-01-13T01:36:37.724Z,1.27
2023-01-13T01:39:26.338Z,0.95
2023-01-13T01:42:35.754Z,1.15
2023-01-13T01:45:25.980Z,1.27
2023-01-13T01:48:13.826Z,0.88
2023-01-13T01:51:01.460Z,1.02
2023-01-13T01:53:54.009Z,1.30
2023-01-13T01:56:45.218Z,1.38
2023-01-13T01:59:35.623Z,1.10
2023-01-13T02:02:24.113Z,1.00
2023-01-13T02:05:11.954Z,1.10
2023-01-13T02:08:03.784Z,1.10
2023-01-13T02:10:55.756Z,1.00
2023-01-13T02:13:45.709Z,1.00
2023-01-13T02:16:34.861Z,0.88
2023-01-13T02:19:44.242Z,1.00
2023-01-13T02:23:35.824Z,0.93
2023-01-13T02:27:07.121Z,0.68
2023-01-13T02:30:27.316Z,1.00
2023-01-13T02:33:38.679Z,0.73
2023-01-13T02:36:35.252Z,0.82
2023-01-13T02:39:29.153Z,0.65
2023-01-13T02:42:42.744Z,1.77
2023-01-13T02:45:39.008Z,0.80
2023-01-13T02:48:31.373Z,0.80
2023-01-13T02:51:23.593Z,0.80
2023-01-13T02:54:16.266Z,0.82
2023-01-13T02:57:07.430Z,0.77
2023-01-13T02:59:57.386Z,0.95
2023-01-13T03:02:46.369Z,0.90
2023-01-13T03:05:34.298Z,0.88
2023-01-13T03:08:35.004Z,0.95
2023-01-13T03:11:26.328Z,0.90
2023-01-13T03:14:24.414Z,0.70
2023-01-13T03:17:20.883Z,1.10
2023-01-13T03:20:18.021Z,0.82
2023-01-13T03:23:10.478Z,1.00
2023-01-13T03:26:06.441Z,0.90
2023-01-13T03:28:59.120Z,0.80
2023-01-13T03:31:57.325Z,1.00
2023-01-13T03:34:48.478Z,1.08
2023-01-13T03:37:42.570Z,0.80
2023-01-13T03:40:34.250Z,0.63
2023-01-13T03:43:45.140Z,0.77
2023-01-13T03:46:38.385Z,0.90
2023-01-13T03:49:30.514Z,0.77
2023-01-13T03:52:27.134Z,1.13
2023-01-13T03:55:20.558Z,0.80
2023-01-13T03:58:16.062Z,0.90
2023-01-13T04:01:12.410Z,0.93
2023-01-13T04:04:05.630Z,1.10
2023-01-13T04:07:00.329Z,1.00
2023-01-13T04:12:59.201Z,1.00
2023-01-13T04:15:47.725Z,1.45
2023-01-13T04:18:39.584Z,0.90
2023-01-13T04:21:28.781Z,1.30
2023-01-13T04:24:17.504Z,1.30
2023-01-13T04:27:04.862Z,1.27
2023-01-13T04:29:53.487Z,1.38
2023-01-13T04:32:41.483Z,1.45
2023-01-13T04:35:28.710Z,1.45
2023-01-13T04:38:18.610Z,1.23
2023-01-13T04:41:06.015Z,0.90
2023-01-13T04:43:53.315Z,0.98
2023-01-13T04:46:42.370Z,1.45
2023-01-13T04:49:30.036Z,1.45
2023-01-13T04:52:17.608Z,1.25
2023-01-13T04:55:05.553Z,1.20
2023-01-13T04:57:52.937Z,1.30
2023-01-13T05:00:40.334Z,1.73
2023-01-13T05:03:29.254Z,1.40
2023-01-13T05:06:16.703Z,1.30
2023-01-13T05:09:03.734Z,1.23
2023-01-13T05:12:08.623Z,1.27
2023-01-13T05:15:13.367Z,1.38
2023-01-13T05:18:01.586Z,1.95
2023-01-13T05:20:50.991Z,1.52
2023-01-13T05:23:55.686Z,1.73
2023-01-13T05:26:43.364Z,1.65
2023-01-13T05:29:30.910Z,1.50
2023-01-13T05:32:18.524Z,1.80
2023-01-13T05:35:06.713Z,2.10
2023-01-13T05:37:55.911Z,1.73
2023-01-13T05:41:06.313Z,1.75
2023-01-13T05:43:53.429Z,1.58
2023-01-13T05:46:41.985Z,1.40
2023-01-13T05:49:29.584Z,1.83
2023-01-13T05:52:17.203Z,1.23
2023-01-13T05:55:06.672Z,1.50
2023-01-13T05:57:53.973Z,2.13
2023-01-13T06:00:41.992Z,1.85
2023-01-13T06:03:29.515Z,1.52
2023-01-13T06:06:17.044Z,2.58
2023-01-13T06:09:04.819Z,1.40
2023-01-13T06:11:53.559Z,1.27
2023-01-13T06:14:41.198Z,1.40
2023-01-13T06:17:28.716Z,1.80
2023-01-13T06:20:17.839Z,1.85
2023-01-13T06:23:09.292Z,1.90
2023-01-13T06:26:03.477Z,1.85
2023-01-13T06:28:52.094Z,1.88
2023-01-13T06:31:40.649Z,1.42
2023-01-13T06:34:28.094Z,1.10
2023-01-13T06:37:19.992Z,2.28
2023-01-13T06:40:08.498Z,1.67
2023-01-13T06:43:16.440Z,1.27
2023-01-13T06:46:05.634Z,0.88
2023-01-13T06:48:52.836Z,1.50
2023-01-13T06:51:40.459Z,1.77
2023-01-13T06:54:27.987Z,1.23
2023-01-13T06:57:15.576Z,1.20
2023-01-13T07:00:03.435Z,1.10
2023-01-13T07:02:52.644Z,1.13
2023-01-13T07:05:40.724Z,1.10
2023-01-13T07:08:28.727Z,1.63
2023-01-13T07:11:16.051Z,1.45
2023-01-13T07:14:20.959Z,1.27
2023-01-13T07:17:08.651Z,1.23
2023-01-13T07:19:58.079Z,1.92
2023-01-13T07:22:46.418Z,2.25
2023-01-13T07:25:34.353Z,1.60
2023-01-13T07:28:22.152Z,1.55
2023-01-13T07:31:15.865Z,1.30
2023-01-13T07:34:06.454Z,1.65
2023-01-13T07:36:55.034Z,2.20
2023-01-13T07:39:42.626Z,1.02
2023-01-13T07:42:46.704Z,1.45
2023-01-13T07:45:33.966Z,1.40
2023-01-13T07:48:21.305Z,1.33
2023-01-13T07:51:10.658Z,1.33
2023-01-13T07:53:59.710Z,1.63
2023-01-13T07:56:47.135Z,1.42
2023-01-13T07:59:34.617Z,1.42
2023-01-13T08:02:24.677Z,1.63
2023-01-13T08:05:13.654Z,1.40
2023-01-13T08:08:03.806Z,1.50
2023-01-13T08:10:52.523Z,1.67
2023-01-13T08:13:40.053Z,1.42
2023-01-13T08:16:27.538Z,1.15
2023-01-13T08:19:15.137Z,1.70
2023-01-13T08:22:03.109Z,1.20
2023-01-13T08:24:50.670Z,1.40
2023-01-13T08:27:40.059Z,1.40
2023-01-13T08:30:28.701Z,1.50
2023-01-13T08:33:16.219Z,1.08
2023-01-13T08:36:05.496Z,1.40
2023-01-13T08:38:52.894Z,1.50
2023-01-13T08:41:58.841Z,1.40
2023-01-13T08:44:47.993Z,1.42
2023-01-13T08:47:35.728Z,2.25
2023-01-13T08:50:23.322Z,1.80
2023-01-13T08:53:11.621Z,1.55
2023-01-13T08:55:59.305Z,1.95
2023-01-13T08:58:46.783Z,1.90
2023-01-13T09:01:36.003Z,2.55
2023-01-13T09:04:27.621Z,2.00
2023-01-13T09:07:15.348Z,1.45
2023-01-13T09:10:02.888Z,2.03
2023-01-13T09:13:07.642Z,1.70
2023-01-13T09:15:56.932Z,2.00
2023-01-13T09:18:45.968Z,2.22
2023-01-13T09:21:33.455Z,1.55
2023-01-13T09:24:21.514Z,1.33
2023-01-13T09:27:09.949Z,1.80
2023-01-13T09:29:57.472Z,2.35
2023-01-13T09:32:44.831Z,1.85
2023-01-13T09:35:32.805Z,2.22
2023-01-13T09:38:20.067Z,2.13
2023-01-13T09:41:28.007Z,2.25
2023-01-13T09:44:19.258Z,2.53
2023-01-13T09:47:14.241Z,1.65
2023-01-13T09:50:16.667Z,2.20
2023-01-13T09:53:11.629Z,2.20
2023-01-13T09:55:59.068Z,2.50
2023-01-13T09:58:48.055Z,2.40
2023-01-13T10:01:42.772Z,2.00
2023-01-13T10:04:30.406Z,2.10
2023-01-13T10:07:17.939Z,1.77
2023-01-13T10:10:13.840Z,2.42
2023-01-13T10:13:17.269Z,2.45
2023-01-13T10:16:18.833Z,2.08
2023-01-13T10:19:11.395Z,2.30
2023-01-13T10:22:19.803Z,1.88
2023-01-13T10:25:20.531Z,3.15
2023-01-13T10:28:12.209Z,1.52
2023-01-13T10:30:59.891Z,3.03
2023-01-13T10:33:47.719Z,2.90
2023-01-13T10:36:35.310Z,2.28
2023-01-13T10:39:22.839Z,2.75
2023-01-13T10:42:17.229Z,2.05
2023-01-13T10:45:05.242Z,2.17
2023-01-13T10:48:08.556Z,2.20
2023-01-13T10:50:55.939Z,1.90
2023-01-13T10:53:47.746Z,2.20
2023-01-13T10:56:35.383Z,2.97
2023-01-13T10:59:26.904Z,2.50
2023-01-13T11:02:27.790Z,2.63
2023-01-13T11:05:23.326Z,1.90
2023-01-13T11:08:18.389Z,1.92
2023-01-13T11:11:26.994Z,2.22
2023-01-13T11:14:37.092Z,1.80
2023-01-13T11:17:38.626Z,1.85
2023-01-13T11:20:32.665Z,2.25
2023-01-13T11:23:27.534Z,1.90
2023-01-13T11:26:19.723Z,2.55
2023-01-13T11:29:12.623Z,1.85
2023-01-13T11:32:09.634Z,2.13
2023-01-13T11:35:03.189Z,2.65
2023-01-13T11:37:57.204Z,1.73
2023-01-13T11:40:47.715Z,2.58
2023-01-13T11:43:42.336Z,1.77
2023-01-13T11:46:30.110Z,2.40
2023-01-13T11:49:24.830Z,3.45
2023-01-13T11:55:11.065Z,1.52
2023-01-13T11:58:06.727Z,2.65
2023-01-13T12:01:06.605Z,2.05
2023-01-13T12:04:05.213Z,3.15
2023-01-13T12:06:58.716Z,2.08
2023-01-13T12:09:59.041Z,2.17
2023-01-13T12:12:54.378Z,3.17
2023-01-13T12:16:07.024Z,1.85
2023-01-13T12:19:19.670Z,1.73
2023-01-13T12:22:13.411Z,2.22
2023-01-13T12:25:13.264Z,2.75
2023-01-13T12:28:04.569Z,2.20
2023-01-13T12:30:55.703Z,2.55
2023-01-13T12:33:57.154Z,2.10
2023-01-13T12:36:55.420Z,2.50
2023-01-13T12:39:52.656Z,1.95
2023-01-13T12:43:06.365Z,1.63
2023-01-13T12:45:53.810Z,2.15
2023-01-13T12:49:05.297Z,1.90
2023-01-13T12:52:12.802Z,1.98
2023-01-13T12:55:15.482Z,1.73
2023-01-13T12:58:18.320Z,2.28
2023-01-13T13:01:13.071Z,1.88
2023-01-13T13:04:11.577Z,1.98
2023-01-13T13:07:09.802Z,2.08
2023-01-13T13:10:00.550Z,1.77
2023-01-13T13:13:12.734Z,1.80
2023-01-13T13:16:47.847Z,2.75
2023-01-13T13:19:44.171Z,1.55
2023-01-13T13:22:44.504Z,2.17
2023-01-13T13:25:32.115Z,1.50
2023-01-13T13:28:22.859Z,1.75
2023-01-13T13:31:22.139Z,1.80
2023-01-13T13:34:18.749Z,1.80
2023-01-13T13:37:20.389Z,1.80
2023-01-13T13:40:28.995Z,1.75
2023-01-13T13:43:43.020Z,1.95
2023-01-13T13:46:50.631Z,1.83
2023-01-13T13:49:40.781Z,2.28
2023-01-13T13:52:31.442Z,1.90
2023-01-13T13:55:21.371Z,2.20
2023-01-13T13:58:18.682Z,2.60
2023-01-13T14:01:07.268Z,1.92
2023-01-13T14:04:08.243Z,2.03
2023-01-13T14:06:57.849Z,2.60
2023-01-13T14:09:46.671Z,2.58
2023-01-13T14:12:39.271Z,2.88
2023-01-13T14:15:32.930Z,2.92
2023-01-13T14:18:21.958Z,2.15
2023-01-13T14:21:21.084Z,2.35
2023-01-13T14:24:16.561Z,2.80
2023-01-13T14:27:12.101Z,2.30
2023-01-13T14:30:01.238Z,2.80
2023-01-13T14:32:49.662Z,3.38
2023-01-13T14:35:36.987Z,2.83
2023-01-13T14:38:25.958Z,1.95
2023-01-13T14:41:19.139Z,1.52
2023-01-13T14:44:17.518Z,2.28
2023-01-13T14:47:19.623Z,3.08
2023-01-13T14:50:08.513Z,2.58
2023-01-13T14:52:57.246Z,2.50
2023-01-13T14:55:46.014Z,2.55
2023-01-13T14:58:33.113Z,1.90
2023-01-13T15:01:29.501Z,2.78
2023-01-13T15:04:18.054Z,2.38
2023-01-13T15:07:05.857Z,1.95
2023-01-13T15:09:55.648Z,2.80
2023-01-13T15:12:44.986Z,3.38
2023-01-13T15:15:34.836Z,2.58
2023-01-13T15:18:22.295Z,3.38
2023-01-13T15:21:10.268Z,2.80
2023-01-13T15:23:57.899Z,2.63
2023-01-13T15:26:45.551Z,3.20
2023-01-13T15:29:34.633Z,2.40
2023-01-13T15:32:23.003Z,2.67
2023-01-13T15:35:14.319Z,2.60
2023-01-13T15:38:01.695Z,2.53
2023-01-13T15:40:50.649Z,2.75
2023-01-13T15:43:55.440Z,2.72
2023-01-13T15:46:44.568Z,4.25
2023-01-13T15:49:36.246Z,2.92
2023-01-13T15:52:24.971Z,3.58
2023-01-13T15:55:12.499Z,3.10
2023-01-13T15:57:59.917Z,2.78
2023-01-13T16:00:46.967Z,3.10
2023-01-13T16:03:35.523Z,4.10
2023-01-13T16:06:28.923Z,3.28
2023-01-13T16:09:16.977Z,3.58
2023-01-13T16:12:04.496Z,2.75
2023-01-13T16:14:52.069Z,2.50
2023-01-13T16:17:39.849Z,3.20
2023-01-13T16:20:28.675Z,3.63
2023-01-13T16:23:16.283Z,3.60
2023-01-13T16:26:06.046Z,3.13
2023-01-13T16:28:55.052Z,3.10
2023-01-13T16:31:42.307Z,3.63
2023-01-13T16:34:29.763Z,3.40
2023-01-13T16:37:22.769Z,3.50
2023-01-13T16:40:19.018Z,3.35
2023-01-13T16:43:06.847Z,3.80
2023-01-13T16:45:54.185Z,3.42
2023-01-13T16:48:41.097Z,3.40
2023-01-13T16:51:28.185Z,3.05
2023-01-13T16:54:17.190Z,3.40
2023-01-13T16:57:06.249Z,3.30
2023-01-13T16:59:53.640Z,3.00
2023-01-13T17:02:41.402Z,3.17
2023-01-13T17:05:28.881Z,2.67
2023-01-13T17:08:19.333Z,3.30
2023-01-13T17:11:08.413Z,2.78
2023-01-13T17:13:55.795Z,2.80
2023-01-13T17:16:43.818Z,3.83
2023-01-13T17:19:31.458Z,3.13
2023-01-13T17:22:19.579Z,3.20
2023-01-13T17:25:07.976Z,2.88
2023-01-13T17:27:57.619Z,3.28
2023-01-13T17:30:46.201Z,3.33
2023-01-13T17:33:37.182Z,3.05
2023-01-13T17:36:25.731Z,2.78
2023-01-13T17:39:17.021Z,3.00
2023-01-13T17:42:07.253Z,3.03
2023-01-13T17:44:55.879Z,3.58
2023-01-13T17:47:43.023Z,2.55
2023-01-13T17:50:32.540Z,3.22
2023-01-13T17:53:20.099Z,2.78
2023-01-13T17:56:08.926Z,3.20
2023-01-13T17:58:56.506Z,2.20
2023-01-13T18:01:46.026Z,2.63
2023-01-13T18:04:33.866Z,3.22
2023-01-13T18:07:21.218Z,3.10
2023-01-13T18:10:09.793Z,3.20
2023-01-13T18:12:57.493Z,3.45
2023-01-13T18:15:45.395Z,3.42
2023-01-13T18:18:35.238Z,3.47
2023-01-13T18:21:40.837Z,3.78
2023-01-13T18:24:45.413Z,3.17
2023-01-13T18:27:34.730Z,3.53
2023-01-13T18:30:22.236Z,2.72
2023-01-13T18:33:09.845Z,2.78
2023-01-13T18:35:58.671Z,3.60
2023-01-13T18:38:46.194Z,3.20
2023-01-13T18:41:50.970Z,3.05
2023-01-13T18:44:38.391Z,2.83
2023-01-13T18:47:28.589Z,3.42
2023-01-13T18:50:17.264Z,2.33
2023-01-13T18:53:06.327Z,2.97
2023-01-13T18:55:53.671Z,3.72
2023-01-13T18:58:49.885Z,3.20
2023-01-13T19:01:38.236Z,2.65
2023-01-13T19:04:25.782Z,3.45
2023-01-13T19:07:21.957Z,2.50
2023-01-13T19:10:13.281Z,3.40
2023-01-13T19:13:01.279Z,2.20
2023-01-13T19:15:48.522Z,2.78
2023-01-13T19:18:37.306Z,2.38
2023-01-13T19:21:25.404Z,2.92
2023-01-13T19:24:12.726Z,2.28
2023-01-13T19:27:01.606Z,2.40
2023-01-13T19:29:52.765Z,2.25
2023-01-13T19:32:40.416Z,2.30
2023-01-13T19:35:27.944Z,2.08
2023-01-13T19:38:15.616Z,2.33
2023-01-13T19:41:11.173Z,2.05
2023-01-13T19:44:17.128Z,2.25
2023-01-13T19:47:06.414Z,2.22
2023-01-13T19:49:54.054Z,1.95
2023-01-13T19:52:41.668Z,2.10
2023-01-13T19:55:30.339Z,2.58
2023-01-13T19:58:19.879Z,2.67
2023-01-13T20:01:11.722Z,2.67
2023-01-13T20:04:03.520Z,2.90
2023-01-13T20:06:51.000Z,3.42
2023-01-13T20:09:38.619Z,2.33
2023-01-13T20:12:27.467Z,2.63
2023-01-13T20:15:15.269Z,2.78
2023-01-13T20:18:04.205Z,3.15
2023-01-13T20:20:51.766Z,2.80
2023-01-13T20:23:39.378Z,2.45
2023-01-13T20:26:27.076Z,2.08
2023-01-13T20:29:14.666Z,2.30
2023-01-13T20:32:02.082Z,3.08
2023-01-13T20:34:51.048Z,2.30
2023-01-13T20:37:39.405Z,2.53
2023-01-13T20:40:26.784Z,3.33
2023-01-13T20:43:13.025Z,2.75
2023-01-13T20:46:00.460Z,2.53
2023-01-13T20:48:48.074Z,2.53
2023-01-13T20:51:37.216Z,2.42
2023-01-13T20:54:25.274Z,1.95
2023-01-13T20:57:13.355Z,3.90
2023-01-13T21:00:01.187Z,3.50
2023-01-13T21:02:48.649Z,2.80
2023-01-13T21:05:37.145Z,3.08
2023-01-13T21:08:25.898Z,3.65
2023-01-13T21:11:15.032Z,3.22
2023-01-13T21:14:19.972Z,2.95
2023-01-13T21:19:53.805Z,2.35
2023-01-13T21:22:41.781Z,2.63
2023-01-13T21:25:30.680Z,2.95
2023-01-13T21:28:18.520Z,3.63
2023-01-13T21:31:06.953Z,2.80
2023-01-13T21:33:55.030Z,3.00
2023-01-13T21:36:42.347Z,3.25
2023-01-13T21:39:30.043Z,2.88
2023-01-13T21:42:36.104Z,3.17
2023-01-13T21:45:40.985Z,2.50
2023-01-13T21:48:28.461Z,3.20
2023-01-13T21:51:15.937Z,2.90
2023-01-13T21:54:03.456Z,3.53
2023-01-13T21:56:51.001Z,2.75
2023-01-13T21:59:39.961Z,3.80
2023-01-13T22:02:31.853Z,3.03
2023-01-13T22:05:21.046Z,3.45
2023-01-13T22:08:08.858Z,3.00
2023-01-13T22:11:00.130Z,2.70
2023-01-13T22:14:04.660Z,3.58
2023-01-13T22:19:42.311Z,2.47
2023-01-13T22:22:34.978Z,3.95
2023-01-13T22:25:22.577Z,3.90
2023-01-13T22:28:13.894Z,3.58
2023-01-13T22:31:02.038Z,3.67
2023-01-13T22:33:53.377Z,3.47
2023-01-13T22:36:40.984Z,3.40
2023-01-13T22:39:28.807Z,3.47
2023-01-13T22:42:15.868Z,2.75
2023-01-13T22:45:03.766Z,4.05
2023-01-13T22:47:51.182Z,2.35
2023-01-13T22:50:40.022Z,3.35
2023-01-13T22:53:27.465Z,4.72
2023-01-13T22:56:20.958Z,3.15
2023-01-13T22:59:10.171Z,4.13
2023-01-13T23:01:57.733Z,4.00
2023-01-13T23:04:45.357Z,3.97
2023-01-13T23:07:33.909Z,3.63
2023-01-13T23:10:21.141Z,3.55
2023-01-13T23:13:09.971Z,3.80
2023-01-13T23:15:57.425Z,3.55
2023-01-13T23:18:48.120Z,6.32
2023-01-13T23:21:37.193Z,3.63
2023-01-13T23:24:27.894Z,2.65
2023-01-13T23:27:15.227Z,2.67
2023-01-13T23:30:02.896Z,3.22
2023-01-13T23:32:50.418Z,5.05
2023-01-13T23:35:37.561Z,3.75
2023-01-13T23:38:24.679Z,2.80
2023-01-13T23:41:15.536Z,3.55
2023-01-13T23:44:02.910Z,3.90
2023-01-13T23:46:50.026Z,3.10
2023-01-13T23:49:37.701Z,4.25
2023-01-13T23:52:25.513Z,3.22
2023-01-13T23:55:12.762Z,5.30
2023-01-13T23:58:01.296Z,3.20
